Time;durP1;ratioP1;P1;durP2;ratioP2;P2;SDS_P1;SDS_P2;PMS_P1;PMS_P2;Temp;Humidity;BMP_temperature;BMP_pressure;BME280_temperature;BME280_humidity;BME280_pressure;Samples;Min_cycle;Max_cycle;Signal;HPM_P1;HPM_P2
2023/06/17 00:00:08;;;;;;;;;;;;;;;30.89;20.24;100828.88;5112913;28;19911;-60
2023/06/17 00:02:34;;;;;;;;;;;;;;;30.83;20.66;100832.91;5113215;28;20627;-59
2023/06/17 00:05:00;;;;;;;;;;;;;;;30.83;20.87;100821.81;5108364;28;19919;-59
2023/06/17 00:07:25;;;;;;;;;;;;;;;30.76;20.67;100829.78;5079289;28;19916;-59
2023/06/17 00:09:51;;;;;;;;;;;;;;;30.67;20.77;100838.09;5091463;28;19930;-60
2023/06/17 00:12:18;;;;;;;;;;;;;;;30.62;20.67;100829.91;5091752;27;20401;-58
2023/06/17 00:14:43;;;;;;;;;;;;;;;30.61;21.71;100831.88;5092254;28;19927;-60
2023/06/17 00:17:08;;;;;;;;;;;;;;;30.56;21.14;100837.56;5092386;27;19916;-60
2023/06/17 00:19:35;;;;;;;;;;;;;;;30.55;21.21;100837.88;5092098;28;19916;-58
2023/06/17 00:22:00;;;;;;;;;;;;;;;30.48;21.24;100841.94;5092300;28;20392;-60
2023/06/17 00:24:26;;;;;;;;;;;;;;;30.48;20.96;100838.34;5107947;28;19916;-60
2023/06/17 00:26:51;;;;;;;;;;;;;;;30.47;21.00;100839.47;5092446;28;20006;-59
2023/06/17 00:29:16;;;;;;;;;;;;;;;30.47;21.16;100845.03;5091708;28;19930;-60
2023/06/17 00:31:42;;;;;;;;;;;;;;;30.41;20.94;100849.06;5091718;28;19912;-60
2023/06/17 00:34:07;;;;;;;;;;;;;;;30.35;21.61;100844.78;5088028;28;20718;-59
2023/06/17 00:36:32;;;;;;;;;;;;;;;30.33;20.91;100847.06;5091753;28;20272;-59
2023/06/17 00:38:57;;;;;;;;;;;;;;;30.32;21.11;100843.44;5102732;28;20006;-58
2023/06/17 00:41:23;;;;;;;;;;;;;;;30.30;20.73;100835.44;5112038;28;19981;-59
2023/06/17 00:43:48;;;;;;;;;;;;;;;30.25;21.62;100843.06;5112009;28;19919;-56
2023/06/17 00:46:32;;;;;;;;;;;;;;;30.23;21.24;100837.84;5112176;28;19923;-55
2023/06/17 00:48:57;;;;;;;;;;;;;;;30.18;21.48;100846.31;5112040;28;19911;-56
2023/06/17 00:51:23;;;;;;;;;;;;;;;30.13;21.69;100845.59;5111982;28;20399;-56
2023/06/17 00:53:48;;;;;;;;;;;;;;;30.07;21.85;100839.38;5111895;28;19973;-59
2023/06/17 00:56:17;;;;;;;;;;;;;;;30.03;22.09;100835.63;5112143;28;19912;-52
2023/06/17 00:58:42;;;;;;;;;;;;;;;29.96;21.37;100843.53;5112306;28;20376;-60
2023/06/17 01:01:07;;;;;;;;;;;;;;;29.91;21.43;100839.78;5086085;28;19961;-59
2023/06/17 01:03:34;;;;;;;;;;;;;;;29.90;21.52;100838.16;5093899;28;19912;-58
2023/06/17 01:06:03;;;;;;;;;;;;;;;29.81;22.22;100837.28;5093900;28;19924;-56
2023/06/17 01:08:34;;;;;;;;;;;;;;;29.78;21.66;100839.84;5093487;28;19912;-59
2023/06/17 01:11:08;;;;;;;;;;;;;;;29.70;21.87;100833.91;5093434;28;19923;-57
2023/06/17 01:13:34;;;;;;;;;;;;;;;29.69;21.85;100835.03;5089832;28;19999;-56
2023/06/17 01:16:00;;;;;;;;;;;;;;;29.66;22.15;100835.66;5093630;28;19923;-59
2023/06/17 01:18:27;;;;;;;;;;;;;;;29.60;22.26;100838.84;5093723;27;19972;-55
2023/06/17 01:20:53;;;;;;;;;;;;;;;29.57;22.24;100842.25;5093816;28;20342;-59
2023/06/17 01:23:21;;;;;;;;;;;;;;;29.54;22.58;100841.75;5094084;28;19912;-56
2023/06/17 01:25:47;;;;;;;;;;;;;;;29.49;22.45;100832.75;5094114;28;19920;-59
2023/06/17 01:28:19;;;;;;;;;;;;;;;29.39;22.68;100839.34;5093737;28;19912;-59
2023/06/17 01:30:46;;;;;;;;;;;;;;;29.32;22.77;100842.53;5093459;28;20339;-59
2023/06/17 01:33:13;;;;;;;;;;;;;;;29.25;22.44;100833.84;5093460;28;19932;-59
2023/06/17 01:35:41;;;;;;;;;;;;;;;29.28;22.06;100838.75;5108457;28;20305;-59
2023/06/17 01:38:09;;;;;;;;;;;;;;;29.26;23.02;100840.19;5114679;28;20360;-58
2023/06/17 01:40:38;;;;;;;;;;;;;;;29.20;22.82;100852.47;5116018;28;19911;-58
2023/06/17 01:43:04;;;;;;;;;;;;;;;29.21;22.71;100843.88;5114606;28;20368;-59
2023/06/17 01:45:30;;;;;;;;;;;;;;;29.17;22.52;100851.16;5114527;28;20352;-60
2023/06/17 01:47:55;;;;;;;;;;;;;;;29.14;22.95;100847.09;5115179;28;19919;-59
2023/06/17 01:50:20;;;;;;;;;;;;;;;29.17;22.52;100845.63;5114875;28;19996;-59
2023/06/17 01:52:46;;;;;;;;;;;;;;;29.08;22.70;100842.75;5106170;28;19912;-58
2023/06/17 01:55:12;;;;;;;;;;;;;;;29.06;22.97;100845.00;5093937;28;19920;-59
2023/06/17 01:57:37;;;;;;;;;;;;;;;29.05;22.71;100840.59;5093623;28;19988;-57
2023/06/17 02:00:02;;;;;;;;;;;;;;;29.03;23.09;100851.16;5093363;28;19912;-58
2023/06/17 02:02:29;;;;;;;;;;;;;;;29.02;23.07;100845.94;5093405;28;19916;-59
2023/06/17 02:04:55;;;;;;;;;;;;;;;28.94;23.33;100844.72;5093186;28;20057;-58
2023/06/17 02:07:25;;;;;;;;;;;;;;;28.89;23.01;100844.81;5093242;28;19916;-58
2023/06/17 02:09:51;;;;;;;;;;;;;;;28.85;23.45;100841.03;5093251;28;20443;-58
2023/06/17 02:12:16;;;;;;;;;;;;;;;28.78;23.41;100844.19;5092596;28;19959;-60
2023/06/17 02:14:41;;;;;;;;;;;;;;;28.79;23.13;100843.09;5093629;28;19925;-60
2023/06/17 02:17:08;;;;;;;;;;;;;;;28.75;23.55;100848.41;5093137;28;20002;-57
2023/06/17 02:19:35;;;;;;;;;;;;;;;28.70;23.65;100850.47;5093335;28;19912;-60
2023/06/17 02:22:00;;;;;;;;;;;;;;;28.65;23.77;100856.06;5093290;28;19912;-60
2023/06/17 02:24:26;;;;;;;;;;;;;;;28.70;23.69;100851.25;5095623;28;19919;-59
2023/06/17 02:26:51;;;;;;;;;;;;;;;28.72;23.62;100848.19;5095770;28;19944;-59
2023/06/17 02:29:17;;;;;;;;;;;;;;;28.63;24.20;100847.28;5097235;28;19912;-57
2023/06/17 02:31:42;;;;;;;;;;;;;;;28.55;24.47;100854.34;5109590;28;19920;-61
2023/06/17 02:34:07;;;;;;;;;;;;;;;28.49;23.99;100856.34;5116909;28;19919;-56
2023/06/17 02:36:33;;;;;;;;;;;;;;;28.43;24.46;100856.72;5117003;28;19954;-58
2023/06/17 02:38:59;;;;;;;;;;;;;;;28.40;24.22;100860.94;5116875;28;19912;-58
2023/06/17 02:41:25;;;;;;;;;;;;;;;28.42;23.89;100857.84;5117122;28;19922;-59
2023/06/17 02:43:50;;;;;;;;;;;;;;;28.41;24.01;100859.78;5117362;28;19916;-58
2023/06/17 02:46:15;;;;;;;;;;;;;;;28.42;24.40;100853.16;5117029;28;19964;-58
2023/06/17 02:48:41;;;;;;;;;;;;;;;28.42;24.30;100855.09;5116716;28;19976;-60
2023/06/17 02:51:07;;;;;;;;;;;;;;;28.36;24.33;100862.66;5116750;27;19920;-59
2023/06/17 02:53:32;;;;;;;;;;;;;;;28.29;24.58;100854.78;5116561;28;19916;-58
2023/06/17 02:55:58;;;;;;;;;;;;;;;28.26;24.49;100860.06;5117161;27;19919;-59
2023/06/17 02:58:25;;;;;;;;;;;;;;;28.30;25.05;100859.16;5116581;28;19911;-56
2023/06/17 03:00:53;;;;;;;;;;;;;;;28.32;25.03;100859.66;5116874;28;20293;-57
2023/06/17 03:03:19;;;;;;;;;;;;;;;28.32;24.48;100856.91;5116810;28;19911;-57
2023/06/17 03:05:44;;;;;;;;;;;;;;;28.34;24.51;100862.97;5116264;28;20331;-60
2023/06/17 03:08:10;;;;;;;;;;;;;;;28.35;24.49;100856.31;5116497;28;19961;-56
2023/06/17 03:10:35;;;;;;;;;;;;;;;28.41;24.14;100864.50;5116436;28;19912;-60
2023/06/17 03:13:01;;;;;;;;;;;;;;;28.37;24.14;100864.28;5115932;27;19950;-59
2023/06/17 03:15:27;;;;;;;;;;;;;;;28.41;24.51;100858.97;5116160;28;19998;-57
2023/06/17 03:17:53;;;;;;;;;;;;;;;28.47;24.13;100866.03;5149142;27;19943;-59
2023/06/17 03:20:18;;;;;;;;;;;;;;;28.44;24.06;100869.44;5103592;28;19948;-60
2023/06/17 03:22:44;;;;;;;;;;;;;;;28.41;24.40;100864.50;5096110;28;19912;-60
2023/06/17 03:25:09;;;;;;;;;;;;;;;28.37;24.67;100869.81;5096038;28;20296;-59
2023/06/17 03:27:35;;;;;;;;;;;;;;;28.38;24.36;100874.25;5105352;28;19929;-60
2023/06/17 03:30:01;;;;;;;;;;;;;;;28.42;24.42;100874.41;5116261;28;19912;-59
2023/06/17 03:32:26;;;;;;;;;;;;;;;28.47;24.45;100882.63;5116020;28;19918;-61
2023/06/17 03:34:52;;;;;;;;;;;;;;;28.44;24.40;100875.78;5115257;28;19923;-61
2023/06/17 03:37:18;;;;;;;;;;;;;;;28.36;24.72;100876.47;5115795;28;19950;-61
2023/06/17 03:39:43;;;;;;;;;;;;;;;28.35;24.29;100878.41;5116069;28;19958;-57
2023/06/17 03:42:09;;;;;;;;;;;;;;;28.35;24.29;100875.66;5115419;28;20279;-56
2023/06/17 03:44:34;;;;;;;;;;;;;;;28.31;24.85;100880.16;5115659;28;19919;-54
2023/06/17 03:46:59;;;;;;;;;;;;;;;28.39;24.36;100875.84;5115477;28;19916;-55
2023/06/17 03:49:25;;;;;;;;;;;;;;;28.39;24.48;100882.19;5115878;28;19912;-55
2023/06/17 03:51:50;;;;;;;;;;;;;;;28.37;24.58;100878.91;5115626;28;20368;-59
2023/06/17 03:54:15;;;;;;;;;;;;;;;28.40;25.03;100880.28;5115691;28;20022;-59
2023/06/17 03:56:41;;;;;;;;;;;;;;;28.35;24.98;100881.16;5115742;28;20367;-57
2023/06/17 03:59:06;;;;;;;;;;;;;;;28.39;24.91;100884.97;5115783;28;19912;-54
2023/06/17 04:01:31;;;;;;;;;;;;;;;28.42;24.42;100875.25;5115354;28;20394;-58
2023/06/17 04:03:56;;;;;;;;;;;;;;;28.49;24.69;100885.91;5115902;28;19919;-55
2023/06/17 04:06:22;;;;;;;;;;;;;;;28.51;24.75;100889.19;5115481;28;20415;-56
2023/06/17 04:08:47;;;;;;;;;;;;;;;28.52;24.86;100893.59;5115239;28;19916;-56
2023/06/17 04:11:13;;;;;;;;;;;;;;;28.53;24.75;100893.31;5115363;28;19911;-56
2023/06/17 04:13:38;;;;;;;;;;;;;;;28.53;24.52;100896.09;5114500;28;19916;-58
2023/06/17 04:16:03;;;;;;;;;;;;;;;28.58;24.44;100892.41;5115176;28;20010;-56
2023/06/17 04:18:29;;;;;;;;;;;;;;;28.57;24.41;100893.53;5115244;27;19916;-57
2023/06/17 04:20:56;;;;;;;;;;;;;;;28.57;24.60;100901.81;5097148;28;20402;-54
2023/06/17 04:23:24;;;;;;;;;;;;;;;28.62;24.28;100901.75;5100459;28;20007;-59
2023/06/17 04:25:50;;;;;;;;;;;;;;;28.63;24.45;100908.06;5115473;28;20272;-56
2023/06/17 04:28:17;;;;;;;;;;;;;;;28.64;24.70;100909.69;5114908;28;19965;-55
2023/06/17 04:30:45;;;;;;;;;;;;;;;28.69;25.12;100902.13;5114997;28;19980;-58
2023/06/17 04:33:12;;;;;;;;;;;;;;;28.65;24.69;100901.09;5114477;28;20359;-56
2023/06/17 04:35:41;;;;;;;;;;;;;;;28.65;24.40;100912.16;5114614;28;19919;-60
2023/06/17 04:38:07;;;;;;;;;;;;;;;28.62;24.41;100912.78;5114845;28;19912;-59
2023/06/17 04:40:32;;;;;;;;;;;;;;;28.64;24.54;100910.53;5114812;28;20388;-58
2023/06/17 04:42:58;;;;;;;;;;;;;;;28.71;24.60;100904.59;5114948;27;19995;-59
2023/06/17 04:45:23;;;;;;;;;;;;;;;28.69;24.75;100909.63;5116222;28;20006;-59
2023/06/17 04:47:48;;;;;;;;;;;;;;;28.72;25.02;100912.59;5117706;28;19964;-59
2023/06/17 04:50:16;;;;;;;;;;;;;;;28.75;24.67;100913.91;5117156;28;19919;-56
2023/06/17 04:52:47;;;;;;;;;;;;;;;28.79;24.89;100906.66;5115031;28;19915;-59
2023/06/17 04:55:13;;;;;;;;;;;;;;;28.81;24.83;100906.34;5115253;28;19916;-59
2023/06/17 04:57:39;;;;;;;;;;;;;;;28.84;24.63;100900.22;5114724;28;19912;-58
2023/06/17 05:00:05;;;;;;;;;;;;;;;28.83;24.46;100910.47;5114491;28;19911;-56
2023/06/17 05:02:31;;;;;;;;;;;;;;;28.84;24.91;100905.75;5114685;28;19974;-56
2023/06/17 05:04:56;;;;;;;;;;;;;;;28.89;24.40;100913.94;5114284;28;19943;-56
2023/06/17 05:07:21;;;;;;;;;;;;;;;28.89;24.93;100905.66;5114515;28;19959;-55
2023/06/17 05:09:47;;;;;;;;;;;;;;;28.80;26.17;100913.00;5114433;28;19928;-59
2023/06/17 05:12:12;;;;;;;;;;;;;;;28.84;25.50;100908.50;5113188;28;20313;-58
2023/06/17 05:14:37;;;;;;;;;;;;;;;28.87;25.17;100913.44;5113956;28;19916;-59
2023/06/17 05:17:03;;;;;;;;;;;;;;;28.87;25.86;100917.00;5114615;28;19918;-58
2023/06/17 05:19:28;;;;;;;;;;;;;;;28.72;26.15;100911.78;5112928;28;19934;-60
2023/06/17 05:21:53;;;;;;;;;;;;;;;28.85;25.09;100910.16;5114102;28;20433;-59
2023/06/17 05:24:20;;;;;;;;;;;;;;;28.94;25.81;100908.31;5114169;28;19911;-60
2023/06/17 05:26:45;;;;;;;;;;;;;;;29.01;24.61;100910.66;5113911;28;19965;-59
2023/06/17 05:29:11;;;;;;;;;;;;;;;29.05;24.76;100908.91;5113706;28;19965;-60
2023/06/17 05:31:36;;;;;;;;;;;;;;;29.10;24.85;100911.56;5113965;28;19919;-59
2023/06/17 05:34:02;;;;;;;;;;;;;;;29.12;25.27;100909.31;5114100;28;19947;-59
2023/06/17 05:36:27;;;;;;;;;;;;;;;29.13;25.03;100906.28;5113804;28;20260;-59
2023/06/17 05:38:52;;;;;;;;;;;;;;;29.15;25.27;100909.56;5114182;28;19998;-59
2023/06/17 05:41:17;;;;;;;;;;;;;;;29.16;24.86;100910.41;5112578;28;19911;-61
2023/06/17 05:43:43;;;;;;;;;;;;;;;29.21;25.05;100901.97;5114165;28;19947;-58
2023/06/17 05:46:10;;;;;;;;;;;;;;;29.25;24.56;100907.69;5114243;28;19964;-59
2023/06/17 05:48:35;;;;;;;;;;;;;;;29.26;24.74;100904.63;5113865;28;20283;-59
2023/06/17 05:51:01;;;;;;;;;;;;;;;29.28;24.98;100909.88;5113605;28;20007;-60
2023/06/17 05:53:26;;;;;;;;;;;;;;;29.36;24.65;100911.06;5113638;28;19915;-62
2023/06/17 05:55:51;;;;;;;;;;;;;;;29.37;25.00;100905.25;5114140;28;19912;-59
2023/06/17 05:58:17;;;;;;;;;;;;;;;29.45;25.16;100906.44;5114684;28;19911;-60
2023/06/17 06:00:42;;;;;;;;;;;;;;;29.51;24.65;100906.03;5118051;28;19912;-59
2023/06/17 06:03:08;;;;;;;;;;;;;;;29.53;24.71;100906.53;5117866;28;19912;-59
2023/06/17 06:05:33;;;;;;;;;;;;;;;29.60;24.89;100908.88;5118087;27;19937;-60
2023/06/17 06:07:58;;;;;;;;;;;;;;;29.59;24.74;100906.41;5117813;28;20387;-60
2023/06/17 06:10:27;;;;;;;;;;;;;;;29.60;24.66;100905.28;5117434;28;19947;-60
2023/06/17 06:12:52;;;;;;;;;;;;;;;29.61;24.68;100904.19;5117278;28;19916;-60
2023/06/17 06:15:17;;;;;;;;;;;;;;;29.62;24.43;100912.16;5117388;28;20352;-59
2023/06/17 06:17:44;;;;;;;;;;;;;;;29.69;24.62;100907.00;5117903;28;19924;-59
2023/06/17 06:20:09;;;;;;;;;;;;;;;29.70;24.16;100910.59;5106021;28;19935;-60
2023/06/17 06:22:34;;;;;;;;;;;;;;;29.77;24.67;100913.78;5097243;28;19913;-60
2023/06/17 06:25:00;;;;;;;;;;;;;;;29.78;24.88;100918.19;5097035;28;20352;-59
2023/06/17 06:27:25;;;;;;;;;;;;;;;29.78;25.12;100909.88;5097436;28;19920;-60
2023/06/17 06:29:51;;;;;;;;;;;;;;;29.84;24.62;100918.88;5097153;28;20360;-60
2023/06/17 06:32:16;;;;;;;;;;;;;;;29.79;24.40;100910.69;5096926;28;19912;-59
2023/06/17 06:34:41;;;;;;;;;;;;;;;29.85;24.76;100915.00;5096764;28;20275;-59
2023/06/17 06:37:06;;;;;;;;;;;;;;;29.90;24.96;100909.31;5095414;28;20281;-59
2023/06/17 06:39:34;;;;;;;;;;;;;;;29.99;24.57;100912.16;5096800;28;19918;-54
2023/06/17 06:41:59;;;;;;;;;;;;;;;30.06;24.48;100916.13;5096668;28;19919;-55
2023/06/17 06:44:24;;;;;;;;;;;;;;;30.09;24.44;100909.97;5096589;28;19912;-59
2023/06/17 06:46:50;;;;;;;;;;;;;;;30.11;24.24;100918.78;5096367;28;20364;-58
2023/06/17 06:49:15;;;;;;;;;;;;;;;30.18;24.04;100915.59;5096338;28;19935;-58
2023/06/17 06:51:40;;;;;;;;;;;;;;;30.20;24.18;100916.09;5096462;28;19978;-60
2023/06/17 06:54:05;;;;;;;;;;;;;;;30.22;24.09;100913.81;5096598;28;20369;-60
2023/06/17 06:56:31;;;;;;;;;;;;;;;30.20;24.35;100920.78;5096767;28;19939;-60
2023/06/17 06:58:56;;;;;;;;;;;;;;;30.25;24.28;100917.88;5096816;28;19952;-60
2023/06/17 07:01:22;;;;;;;;;;;;;;;30.36;23.80;100918.50;5096515;28;19912;-60
2023/06/17 07:03:47;;;;;;;;;;;;;;;30.22;23.93;100919.34;5096353;28;19934;-59
2023/06/17 07:06:13;;;;;;;;;;;;;;;30.28;23.69;100925.59;5096559;28;19919;-59
2023/06/17 07:08:38;;;;;;;;;;;;;;;30.44;23.58;100920.47;5096164;28;19912;-59
2023/06/17 07:11:03;;;;;;;;;;;;;;;30.51;23.56;100926.41;5095218;28;19920;-59
2023/06/17 07:13:28;;;;;;;;;;;;;;;30.57;23.34;100925.16;5112401;28;20360;-60
2023/06/17 07:15:54;;;;;;;;;;;;;;;30.61;23.83;100928.06;5116635;28;19912;-60
2023/06/17 07:18:19;;;;;;;;;;;;;;;30.61;23.40;100930.84;5116616;28;20348;-59
2023/06/17 07:20:45;;;;;;;;;;;;;;;30.63;25.55;100928.59;5100044;28;19912;-59
2023/06/17 07:23:10;;;;;;;;;;;;;;;30.54;24.26;100928.53;5096136;28;19928;-60
2023/06/17 07:25:36;;;;;;;;;;;;;;;30.72;24.25;100928.63;5095916;28;19919;-60
2023/06/17 07:28:02;;;;;;;;;;;;;;;30.80;25.30;100927.88;5096149;28;19916;-59
2023/06/17 07:30:28;;;;;;;;;;;;;;;30.94;24.70;100925.00;5095819;28;19973;-60
2023/06/17 07:32:53;;;;;;;;;;;;;;;31.02;24.13;100929.78;5095554;28;20350;-59
2023/06/17 07:35:19;;;;;;;;;;;;;;;30.99;23.74;100920.13;5095562;28;19923;-60
2023/06/17 07:37:44;;;;;;;;;;;;;;;30.98;23.64;100926.00;5095959;28;19920;-59
2023/06/17 07:40:11;;;;;;;;;;;;;;;31.07;23.93;100924.06;5095721;28;20375;-59
2023/06/17 07:42:37;;;;;;;;;;;;;;;31.09;23.53;100926.53;5095812;28;19919;-59
2023/06/17 07:45:03;;;;;;;;;;;;;;;31.15;23.56;100919.69;5095536;28;20318;-59
2023/06/17 07:47:29;;;;;;;;;;;;;;;31.16;23.45;100922.13;5095408;28;19919;-59
2023/06/17 07:49:54;;;;;;;;;;;;;;;30.99;23.04;100927.63;5093791;28;19962;-59
2023/06/17 07:52:20;;;;;;;;;;;;;;;31.12;22.17;100928.66;5095235;28;19962;-58
2023/06/17 07:54:47;;;;;;;;;;;;;;;31.12;21.72;100931.44;5095675;28;19999;-59
2023/06/17 07:57:13;;;;;;;;;;;;;;;31.19;21.49;100924.28;5098452;28;20368;-59
2023/06/17 07:59:43;;;;;;;;;;;;;;;31.20;21.16;100925.09;5098781;28;19912;-59
2023/06/17 08:02:10;;;;;;;;;;;;;;;31.20;21.83;100925.09;5096294;28;20318;-58
2023/06/17 08:04:36;;;;;;;;;;;;;;;31.24;22.81;100923.28;5096544;28;19912;-59
2023/06/17 08:07:02;;;;;;;;;;;;;;;31.26;22.83;100926.59;5095827;28;19923;-57
2023/06/17 08:09:28;;;;;;;;;;;;;;;31.22;22.71;100917.25;5110875;28;19965;-57
2023/06/17 08:11:56;;;;;;;;;;;;;;;31.36;22.73;100917.13;5114717;28;19912;-57
2023/06/17 08:14:21;;;;;;;;;;;;;;;31.53;22.03;100925.50;5115189;27;19927;-58
2023/06/17 08:16:46;;;;;;;;;;;;;;;31.55;22.56;100916.88;5115347;27;20387;-57
2023/06/17 08:19:12;;;;;;;;;;;;;;;31.54;22.18;100915.25;5111731;28;20283;-58
2023/06/17 08:21:37;;;;;;;;;;;;;;;31.54;20.84;100912.47;5094497;28;19912;-57
2023/06/17 08:24:15;;;;;;;;;;;;;;;31.56;21.58;100927.66;5095017;28;19965;-57
2023/06/17 08:26:43;;;;;;;;;;;;;;;31.60;21.05;100922.28;5094505;28;19912;-56
2023/06/17 08:29:09;;;;;;;;;;;;;;;31.66;19.41;100922.94;5094505;28;19924;-59
2023/06/17 08:31:35;;;;;;;;;;;;;;;31.74;19.01;100927.66;5094921;28;19913;-57
2023/06/17 08:34:00;;;;;;;;;;;;;;;31.78;21.02;100917.53;5094021;28;20010;-58
2023/06/17 08:36:26;;;;;;;;;;;;;;;31.94;20.85;100926.19;5094436;28;19912;-59
2023/06/17 08:38:51;;;;;;;;;;;;;;;32.03;20.37;100918.72;5094453;28;20123;-61
2023/06/17 08:41:16;;;;;;;;;;;;;;;32.12;20.75;100927.03;5094528;28;19957;-60
2023/06/17 08:43:44;;;;;;;;;;;;;;;32.08;18.89;100920.50;5094359;28;19923;-60
2023/06/17 08:46:10;;;;;;;;;;;;;;;32.18;19.30;100918.19;5094042;28;20371;-60
2023/06/17 08:48:36;;;;;;;;;;;;;;;32.18;19.05;100925.72;5094327;28;19919;-58
2023/06/17 08:51:02;;;;;;;;;;;;;;;32.35;20.01;100911.78;5094097;28;19924;-58
2023/06/17 08:53:28;;;;;;;;;;;;;;;32.46;18.56;100917.81;5094050;28;19920;-59
2023/06/17 08:55:53;;;;;;;;;;;;;;;32.55;19.16;100912.22;5093902;28;19912;-59
2023/06/17 08:58:18;;;;;;;;;;;;;;;32.64;18.51;100915.03;5094176;28;19912;-60
2023/06/17 09:00:44;;;;;;;;;;;;;;;32.73;18.49;100916.63;5093806;28;19919;-60
2023/06/17 09:03:10;;;;;;;;;;;;;;;32.85;18.50;100921.47;5094341;28;19912;-60
2023/06/17 09:05:35;;;;;;;;;;;;;;;32.87;17.48;100919.16;5107863;28;19999;-60
2023/06/17 09:08:01;;;;;;;;;;;;;;;32.86;17.22;100916.75;5114235;28;19916;-59
2023/06/17 09:10:26;;;;;;;;;;;;;;;32.88;17.13;100911.66;5114223;28;20346;-61
2023/06/17 09:12:51;;;;;;;;;;;;;;;32.96;16.71;100917.16;5112086;28;20018;-59
2023/06/17 09:15:17;;;;;;;;;;;;;;;33.02;17.12;100909.44;5105502;28;20289;-71
2023/06/17 09:17:45;;;;;;;;;;;;;;;32.99;16.74;100908.16;5094025;28;19958;-67
2023/06/17 09:20:11;;;;;;;;;;;;;;;33.14;16.78;100912.34;5093721;28;19915;-61
2023/06/17 09:22:40;;;;;;;;;;;;;;;33.24;16.66;100905.56;5094109;28;20011;-71
2023/06/17 09:25:08;;;;;;;;;;;;;;;33.30;16.95;100904.25;5092665;28;19935;-68
2023/06/17 09:27:33;;;;;;;;;;;;;;;33.28;16.77;100909.31;5092392;28;19912;-68
2023/06/17 09:30:13;;;;;;;;;;;;;;;33.33;15.90;100897.19;5093657;28;19912;-67
2023/06/17 09:32:42;;;;;;;;;;;;;;;33.30;15.65;100897.84;5094261;28;20348;-64
2023/06/17 09:35:17;;;;;;;;;;;;;;;33.35;15.25;100898.47;5097997;28;20261;-65
2023/06/17 09:37:49;;;;;;;;;;;;;;;33.46;15.70;100898.06;5098234;28;19957;-66
2023/06/17 09:40:15;;;;;;;;;;;;;;;33.46;15.34;100900.88;5097744;28;20292;-65
2023/06/17 09:42:44;;;;;;;;;;;;;;;33.61;16.32;100891.91;5097663;28;19912;-67
2023/06/17 09:45:11;;;;;;;;;;;;;;;33.74;15.36;100896.41;5097513;28;19912;-67
2023/06/17 09:47:39;;;;;;;;;;;;;;;33.91;16.06;100901.00;5097786;28;19997;-65
2023/06/17 09:50:08;;;;;;;;;;;;;;;33.76;15.61;100896.06;5096152;28;19915;-69
2023/06/17 09:52:35;;;;;;;;;;;;;;;33.86;15.79;100892.88;5097776;28;19919;-70
2023/06/17 09:55:02;;;;;;;;;;;;;;;34.08;16.41;100894.47;5097477;28;20288;-70
2023/06/17 09:57:31;;;;;;;;;;;;;;;34.16;16.19;100883.53;5097445;28;19913;-70
2023/06/17 09:59:57;;;;;;;;;;;;;;;34.22;16.04;100888.59;5097087;28;19961;-70
2023/06/17 10:02:22;;;;;;;;;;;;;;;34.23;15.16;100884.66;5095743;28;20318;-68
2023/06/17 10:04:47;;;;;;;;;;;;;;;34.21;14.11;100878.59;5096776;28;20049;-67
2023/06/17 10:07:14;;;;;;;;;;;;;;;34.26;14.82;100880.38;5097242;28;19912;-69
2023/06/17 10:09:40;;;;;;;;;;;;;;;34.43;15.01;100874.59;5095951;28;19912;-67
2023/06/17 10:12:06;;;;;;;;;;;;;;;34.60;14.52;100869.97;5096509;28;19982;-67
2023/06/17 10:14:32;;;;;;;;;;;;;;;34.73;14.96;100865.22;5097199;28;19924;-69
2023/06/17 10:16:58;;;;;;;;;;;;;;;34.64;14.53;100876.47;5096953;28;19919;-68
2023/06/17 10:19:27;;;;;;;;;;;;;;;34.66;14.62;100871.38;5096814;28;19965;-69
2023/06/17 10:21:54;;;;;;;;;;;;;;;34.86;14.49;100873.28;5096952;28;19919;-69
2023/06/17 10:24:21;;;;;;;;;;;;;;;34.61;14.67;100874.38;5096981;28;19919;-60
2023/06/17 10:26:49;;;;;;;;;;;;;;;34.84;14.89;100867.19;5096642;28;19912;-61
2023/06/17 10:29:14;;;;;;;;;;;;;;;35.11;14.40;100866.84;5097235;28;19912;-74
2023/06/17 10:31:40;;;;;;;;;;;;;;;35.23;14.74;100862.06;5096902;28;19918;-72
2023/06/17 10:34:07;;;;;;;;;;;;;;;35.42;13.87;100871.81;5096907;28;20006;-70
2023/06/17 10:36:36;;;;;;;;;;;;;;;35.40;14.24;100863.81;5096783;28;19916;-69
2023/06/17 10:39:12;;;;;;;;;;;;;;;35.55;13.91;100855.81;5095508;28;19991;-68
2023/06/17 10:41:37;;;;;;;;;;;;;;;35.80;14.66;100857.38;5095573;28;19930;-71
2023/06/17 10:44:21;;;;;;;;;;;;;;;35.86;14.16;100849.56;5096346;28;19961;-70
2023/06/17 10:46:49;;;;;;;;;;;;;;;36.04;14.68;100856.44;5096159;28;19912;-69
2023/06/17 10:49:16;;;;;;;;;;;;;;;36.07;14.87;100851.31;5096327;28;19916;-68
2023/06/17 10:51:46;;;;;;;;;;;;;;;36.12;14.14;100853.84;5096006;28;19962;-70
2023/06/17 10:54:11;;;;;;;;;;;;;;;36.13;14.05;100847.09;5096652;28;19930;-70
2023/06/17 10:56:52;;;;;;;;;;;;;;;36.21;14.46;100846.13;5097551;28;19965;-73
2023/06/17 10:59:25;;;;;;;;;;;;;;;36.21;14.15;100846.13;5117389;28;20372;-62
2023/06/17 11:01:50;;;;;;;;;;;;;;;36.38;14.21;100837.38;5109469;28;19985;-66
2023/06/17 11:04:17;;;;;;;;;;;;;;;36.55;13.94;100838.19;5099457;28;19912;-61
2023/06/17 11:06:45;;;;;;;;;;;;;;;36.87;14.24;100833.41;5097752;28;20349;-62
2023/06/17 11:09:11;;;;;;;;;;;;;;;36.99;14.48;100835.28;5097134;28;20345;-63
2023/06/17 11:11:36;;;;;;;;;;;;;;;37.07;13.84;100836.25;5095682;28;19913;-63
2023/06/17 11:14:01;;;;;;;;;;;;;;;37.26;13.56;100832.69;5095980;28;19943;-62
2023/06/17 11:16:29;;;;;;;;;;;;;;;37.43;13.44;100829.47;5096359;28;19912;-62
2023/06/17 11:18:54;;;;;;;;;;;;;;;37.61;13.09;100838.22;5095888;28;19916;-62
2023/06/17 11:21:19;;;;;;;;;;;;;;;37.64;13.25;100823.50;5096508;28;19934;-62
2023/06/17 11:23:45;;;;;;;;;;;;;;;37.85;13.75;100823.09;5096055;28;20311;-62
2023/06/17 11:26:10;;;;;;;;;;;;;;;38.20;12.93;100826.97;5095971;28;19912;-62
2023/06/17 11:28:36;;;;;;;;;;;;;;;38.57;13.23;100816.00;5095604;28;19912;-62
2023/06/17 11:31:01;;;;;;;;;;;;;;;39.00;12.80;100810.19;5095761;28;19920;-62
2023/06/17 11:33:28;;;;;;;;;;;;;;;39.34;12.18;100816.72;5095517;28;19913;-62
2023/06/17 11:35:53;;;;;;;;;;;;;;;39.58;12.54;100806.16;5095553;28;20300;-60
2023/06/17 11:38:20;;;;;;;;;;;;;;;39.84;11.59;100814.50;5095250;28;19919;-61
2023/06/17 11:40:45;;;;;;;;;;;;;;;39.93;12.42;100810.59;5095521;28;19957;-62
2023/06/17 11:43:11;;;;;;;;;;;;;;;40.15;12.05;100806.78;5095725;28;19920;-62
2023/06/17 11:45:36;;;;;;;;;;;;;;;40.24;11.34;100812.88;5095140;28;19959;-62
2023/06/17 11:48:05;;;;;;;;;;;;;;;40.34;11.67;100811.38;5095377;28;19916;-63
2023/06/17 11:50:31;;;;;;;;;;;;;;;40.64;11.23;100801.94;5095319;28;19977;-63
2023/06/17 11:52:56;;;;;;;;;;;;;;;41.05;11.38;100801.00;5097264;28;19912;-63
2023/06/17 11:55:28;;;;;;;;;;;;;;;41.25;11.68;100807.16;5115489;28;19920;-63
2023/06/17 11:57:54;;;;;;;;;;;;;;;41.14;10.94;100805.09;5115756;28;20276;-63
2023/06/17 12:00:19;;;;;;;;;;;;;;;41.27;11.27;100804.75;5115640;28;19918;-63
2023/06/17 12:02:45;;;;;;;;;;;;;;;41.38;10.34;100808.44;5115218;28;19961;-63
2023/06/17 12:05:10;;;;;;;;;;;;;;;41.47;10.33;100800.41;5115522;28;19912;-63
2023/06/17 12:07:36;;;;;;;;;;;;;;;41.56;11.14;100800.03;5107932;28;20406;-62
2023/06/17 12:10:01;;;;;;;;;;;;;;;41.85;10.93;100789.66;5095330;27;20418;-62
2023/06/17 12:12:32;;;;;;;;;;;;;;;42.18;10.35;100790.47;5094504;28;20272;-62
2023/06/17 12:15:12;;;;;;;;;;;;;;;42.48;9.76;100790.09;5127472;27;19916;-63
2023/06/17 12:17:38;;;;;;;;;;;;;;;43.11;10.57;100789.53;5094161;28;19912;-62
2023/06/17 12:20:03;;;;;;;;;;;;;;;43.56;9.63;100786.94;5094272;28;19912;-63
2023/06/17 12:22:28;;;;;;;;;;;;;;;43.76;9.37;100790.06;5094936;28;19912;-63
2023/06/17 12:24:54;;;;;;;;;;;;;;;44.10;9.94;100788.59;5094381;28;20403;-62
2023/06/17 12:27:26;;;;;;;;;;;;;;;44.33;9.19;100785.19;5094255;28;19943;-62
2023/06/17 12:29:51;;;;;;;;;;;;;;;44.35;9.15;100789.19;5094332;28;20325;-62
2023/06/17 12:32:16;;;;;;;;;;;;;;;44.34;9.28;100787.59;5094809;28;20010;-62